Time;durP1;ratioP1;P1;durP2;ratioP2;P2;SDS_P1;SDS_P2;PMS_P1;PMS_P2;Temp;Humidity;BMP_temperature;BMP_pressure;BME280_temperature;BME280_humidity;BME280_pressure;Samples;Min_cycle;Max_cycle;Signal;HPM_P1;HPM_P2
2023/10/10 00:00:23;;;;;;;11.98;8.43;;;;;;;;;;5120761;27;20114;-80
2023/10/10 00:02:51;;;;;;;12.82;9.20;;;;;;;;;;5137675;27;20055;-80
2023/10/10 00:05:18;;;;;;;10.15;7.97;;;;;;;;;;5137166;27;20043;-80
2023/10/10 00:07:44;;;;;;;12.48;8.32;;;;;;;;;;5137417;27;20117;-80
2023/10/10 00:10:13;;;;;;;13.68;8.82;;;;;;;;;;5137499;27;20047;-80
2023/10/10 00:12:39;;;;;;;10.48;8.45;;;;;;;;;;5120805;27;20042;-80
2023/10/10 00:15:22;;;;;;;14.27;8.48;;;;;;;;;;5137252;27;20483;-80
2023/10/10 00:17:49;;;;;;;11.48;8.02;;;;;;;;;;5137721;27;20146;-81
2023/10/10 00:20:21;;;;;;;14.45;8.65;;;;;;;;;;5136741;27;20462;-80
2023/10/10 00:22:48;;;;;;;12.90;7.25;;;;;;;;;;5121139;27;20053;-81
2023/10/10 00:25:16;;;;;;;11.48;8.55;;;;;;;;;;5137183;27;20039;-80
2023/10/10 00:27:47;;;;;;;11.60;7.32;;;;;;;;;;5137305;27;20046;-80
2023/10/10 00:30:14;;;;;;;12.43;7.90;;;;;;;;;;5137018;27;20071;-80
2023/10/10 00:32:42;;;;;;;8.70;7.25;;;;;;;;;;5120204;27;20074;-80
2023/10/10 00:35:12;;;;;;;10.38;6.90;;;;;;;;;;5155021;27;20093;-80
2023/10/10 00:37:38;;;;;;;9.40;6.70;;;;;;;;;;5136927;27;20090;-80
2023/10/10 00:40:09;;;;;;;9.57;7.28;;;;;;;;;;5119148;27;20514;-80
2023/10/10 00:42:42;;;;;;;10.82;6.85;;;;;;;;;;5136794;27;20050;-81
2023/10/10 00:45:15;;;;;;;10.85;6.18;;;;;;;;;;5103854;27;20133;-80
2023/10/10 00:47:49;;;;;;;9.43;6.80;;;;;;;;;;5137092;27;20051;-80
2023/10/10 00:50:18;;;;;;;8.87;6.63;;;;;;;;;;5136693;27;20051;-80
2023/10/10 00:52:45;;;;;;;9.52;6.22;;;;;;;;;;5119888;27;20053;-80
2023/10/10 00:55:11;;;;;;;8.00;6.03;;;;;;;;;;5155357;27;20453;-80
2023/10/10 00:57:38;;;;;;;9.63;5.70;;;;;;;;;;5137004;27;20134;-80
2023/10/10 01:00:15;;;;;;;12.60;6.05;;;;;;;;;;5136573;27;20126;-80
2023/10/10 01:02:42;;;;;;;11.10;6.20;;;;;;;;;;5137181;27;20443;-80
2023/10/10 01:05:12;;;;;;;9.30;5.65;;;;;;;;;;5136940;27;20100;-80
2023/10/10 01:07:47;;;;;;;12.73;6.32;;;;;;;;;;5136761;27;20085;-80
2023/10/10 01:10:16;;;;;;;9.35;5.95;;;;;;;;;;5136901;27;20047;-80
2023/10/10 01:12:43;;;;;;;8.93;5.95;;;;;;;;;;5120248;27;20046;-80
2023/10/10 01:15:24;;;;;;;14.10;6.03;;;;;;;;;;5119741;27;20375;-80
2023/10/10 01:17:51;;;;;;;7.95;6.15;;;;;;;;;;5136495;27;20042;-80
2023/10/10 01:22:49;;;;;;;9.25;5.78;;;;;;;;;;5154950;27;20086;-80
2023/10/10 01:31:10;;;;;;;6.75;5.68;;;;;;;;;;5136843;27;20011;-80
2023/10/10 01:36:03;;;;;;;6.47;5.30;;;;;;;;;;5136444;27;20046;-79
2023/10/10 01:38:56;;;;;;;8.93;6.20;;;;;;;;;;5118998;27;20061;-80
2023/10/10 01:41:33;;;;;;;9.75;6.72;;;;;;;;;;5119999;27;20051;-80
2023/10/10 01:44:12;;;;;;;10.55;7.07;;;;;;;;;;5102911;27;20095;-80
2023/10/10 01:46:42;;;;;;;9.73;6.82;;;;;;;;;;5137469;27;20095;-80
2023/10/10 01:49:13;;;;;;;9.30;7.22;;;;;;;;;;5158566;27;20039;-80
2023/10/10 01:51:43;;;;;;;14.43;6.82;;;;;;;;;;5139542;27;20093;-80
2023/10/10 01:54:20;;;;;;;9.98;6.30;;;;;;;;;;5123485;27;20053;-80
2023/10/10 01:56:47;;;;;;;9.25;6.82;;;;;;;;;;5140487;27;20054;-80
2023/10/10 01:59:15;;;;;;;13.40;8.10;;;;;;;;;;5122823;27;20045;-79
2023/10/10 02:01:41;;;;;;;11.15;7.78;;;;;;;;;;5139865;27;20046;-79
2023/10/10 02:04:08;;;;;;;9.65;7.18;;;;;;;;;;5139569;27;20539;-80
2023/10/10 02:06:35;;;;;;;9.75;7.65;;;;;;;;;;5123079;27;20179;-79
2023/10/10 02:09:27;;;;;;;10.15;7.47;;;;;;;;;;5122829;27;20050;-79
2023/10/10 02:12:04;;;;;;;12.80;7.82;;;;;;;;;;5157981;27;20129;-80
2023/10/10 02:14:30;;;;;;;8.60;7.72;;;;;;;;;;5140002;27;20149;-79
2023/10/10 02:17:06;;;;;;;11.70;7.60;;;;;;;;;;5139536;27;20398;-79
2023/10/10 02:19:39;;;;;;;9.77;7.95;;;;;;;;;;5122088;27;20049;-81
2023/10/10 02:25:31;;;;;;;9.30;7.60;;;;;;;;;;5098120;27;20367;-79
2023/10/10 02:30:40;;;;;;;10.25;7.88;;;;;;;;;;5127784;27;20046;-80
2023/10/10 02:35:54;;;;;;;8.45;7.55;;;;;;;;;;5145132;27;20137;-79
2023/10/10 02:38:40;;;;;;;13.13;8.57;;;;;;;;;;5142770;27;20129;-80
2023/10/10 02:44:25;;;;;;;8.18;6.95;;;;;;;;;;5076396;28;20581;-79
2023/10/10 02:46:53;;;;;;;10.35;7.97;;;;;;;;;;5076844;28;20052;-79
2023/10/10 02:49:29;;;;;;;9.48;7.50;;;;;;;;;;5142107;27;20077;-79
2023/10/10 02:51:56;;;;;;;9.15;7.35;;;;;;;;;;5143642;27;20046;-79
2023/10/10 02:56:56;;;;;;;9.82;6.72;;;;;;;;;;5159602;27;20073;-79
2023/10/10 02:59:24;;;;;;;11.38;7.90;;;;;;;;;;5160098;27;20042;-79
2023/10/10 03:04:17;;;;;;;10.10;6.80;;;;;;;;;;5159556;27;20134;-79
2023/10/10 03:06:44;;;;;;;9.48;6.72;;;;;;;;;;5177707;27;20046;-79
2023/10/10 03:09:38;;;;;;;10.35;7.40;;;;;;;;;;5159124;27;20053;-79
2023/10/10 03:12:05;;;;;;;7.47;6.32;;;;;;;;;;5159162;27;20060;-79
2023/10/10 03:14:35;;;;;;;9.20;6.40;;;;;;;;;;5159206;27;20051;-79
2023/10/10 03:17:06;;;;;;;10.65;6.72;;;;;;;;;;5142155;27;20073;-79
2023/10/10 03:19:39;;;;;;;6.50;5.90;;;;;;;;;;5159058;27;20091;-79
2023/10/10 03:25:20;;;;;;;10.20;6.90;;;;;;;;;;5075618;28;20062;-79
2023/10/10 03:27:54;;;;;;;8.52;6.28;;;;;;;;;;5132354;27;20054;-79
2023/10/10 03:30:34;;;;;;;6.93;6.07;;;;;;;;;;5159107;27;20061;-79
2023/10/10 03:33:08;;;;;;;9.60;6.43;;;;;;;;;;5141728;27;20052;-79
2023/10/10 03:35:58;;;;;;;11.85;6.95;;;;;;;;;;5125815;27;20046;-78
2023/10/10 03:38:43;;;;;;;7.65;6.90;;;;;;;;;;5158749;27;20080;-78
2023/10/10 05:25:31;;;;;;;30.55;25.63;;;;;;;;;;5161264;27;20550;-80
2023/10/10 05:28:00;;;;;;;30.90;26.05;;;;;;;;;;5160960;27;20490;-80
2023/10/10 05:30:39;;;;;;;28.85;23.63;;;;;;;;;;5180025;27;20094;-80
2023/10/10 05:33:06;;;;;;;29.45;24.40;;;;;;;;;;5143849;27;20397;-79
2023/10/10 05:35:33;;;;;;;30.20;25.95;;;;;;;;;;5144209;27;20049;-79
2023/10/10 05:38:00;;;;;;;31.38;24.65;;;;;;;;;;5179813;27;20050;-78
2023/10/10 05:40:26;;;;;;;34.33;27.35;;;;;;;;;;5157438;27;20046;-78
2023/10/10 05:42:53;;;;;;;40.25;29.25;;;;;;;;;;5157772;27;20482;-79
2023/10/10 05:45:20;;;;;;;38.90;27.45;;;;;;;;;;5157751;27;20100;-79
2023/10/10 05:47:47;;;;;;;28.42;25.33;;;;;;;;;;5157417;27;20043;-79
2023/10/10 05:50:13;;;;;;;31.23;25.17;;;;;;;;;;5157041;27;20050;-79
2023/10/10 05:52:39;;;;;;;28.50;25.42;;;;;;;;;;5140777;27;20061;-79
2023/10/10 05:55:10;;;;;;;28.73;25.67;;;;;;;;;;5140151;27;20046;-79
2023/10/10 05:57:40;;;;;;;30.15;26.73;;;;;;;;;;5157334;27;20042;-79
2023/10/10 06:00:13;;;;;;;34.58;28.20;;;;;;;;;;5140127;27;20131;-80
2023/10/10 06:02:46;;;;;;;34.28;28.30;;;;;;;;;;5157166;27;20042;-82
2023/10/10 06:05:16;;;;;;;36.80;28.50;;;;;;;;;;5156956;27;20049;-80
2023/10/10 06:07:43;;;;;;;36.60;27.63;;;;;;;;;;5156746;27;20049;-80
2023/10/10 06:10:16;;;;;;;35.03;28.67;;;;;;;;;;5157234;27;20046;-80
2023/10/10 06:12:43;;;;;;;30.60;25.98;;;;;;;;;;5156949;27;20050;-80
2023/10/10 06:15:09;;;;;;;30.23;26.60;;;;;;;;;;5156777;27;20051;-80
2023/10/10 06:17:35;;;;;;;33.05;25.38;;;;;;;;;;5139814;27;20518;-80
2023/10/10 06:20:01;;;;;;;35.47;28.83;;;;;;;;;;5156193;27;20049;-79
2023/10/10 06:22:30;;;;;;;31.33;26.63;;;;;;;;;;5139690;27;20489;-81
2023/10/10 06:24:58;;;;;;;30.42;27.27;;;;;;;;;;5157093;27;20393;-80
2023/10/10 06:27:32;;;;;;;32.83;27.52;;;;;;;;;;5157032;27;20054;-80
2023/10/10 06:29:58;;;;;;;32.25;27.48;;;;;;;;;;5157579;27;20559;-80
2023/10/10 06:32:32;;;;;;;35.63;28.75;;;;;;;;;;5156419;27;20051;-80
2023/10/10 06:37:53;;;;;;;39.17;32.28;;;;;;;;;;5156407;27;20054;-80
2023/10/10 06:40:25;;;;;;;37.65;32.22;;;;;;;;;;5156394;27;20051;-80
2023/10/10 06:42:57;;;;;;;37.28;31.10;;;;;;;;;;5158265;27;20065;-80
2023/10/10 06:45:24;;;;;;;38.55;31.25;;;;;;;;;;5156628;27;20038;-81
2023/10/10 06:47:51;;;;;;;37.00;31.33;;;;;;;;;;5157504;27;20058;-81
2023/10/10 06:50:21;;;;;;;35.58;30.98;;;;;;;;;;5156345;27;20039;-81
2023/10/10 06:52:52;;;;;;;35.58;30.38;;;;;;;;;;5156056;27;20072;-80
2023/10/10 06:55:21;;;;;;;30.00;26.48;;;;;;;;;;5139392;27;20051;-80
2023/10/10 06:58:01;;;;;;;32.28;28.15;;;;;;;;;;5157245;27;20053;-80
2023/10/10 07:00:28;;;;;;;31.60;26.92;;;;;;;;;;5156411;27;20393;-81
2023/10/10 07:02:55;;;;;;;31.13;27.38;;;;;;;;;;5156176;27;20042;-81
2023/10/10 07:05:26;;;;;;;32.10;27.33;;;;;;;;;;5156135;27;20433;-81
2023/10/10 07:07:57;;;;;;;30.90;27.60;;;;;;;;;;5138385;27;20071;-81
2023/10/10 07:10:32;;;;;;;34.42;28.98;;;;;;;;;;5156079;27;20057;-81
2023/10/10 07:12:59;;;;;;;35.47;31.60;;;;;;;;;;5156111;27;20069;-80
2023/10/10 07:15:26;;;;;;;38.95;32.97;;;;;;;;;;5139580;27;20054;-80
2023/10/10 07:18:04;;;;;;;50.00;38.45;;;;;;;;;;5155892;27;20043;-80
2023/10/10 07:23:16;;;;;;;52.65;44.80;;;;;;;;;;5155600;27;20054;-80
2023/10/10 07:25:57;;;;;;;63.60;47.50;;;;;;;;;;5155728;27;20042;-81
2023/10/10 07:28:26;;;;;;;56.30;48.38;;;;;;;;;;5140872;27;20099;-80
2023/10/10 07:30:52;;;;;;;63.45;49.83;;;;;;;;;;5138801;27;20057;-80
2023/10/10 07:33:22;;;;;;;65.97;51.17;;;;;;;;;;5138728;27;20159;-81
2023/10/10 07:35:53;;;;;;;68.93;52.50;;;;;;;;;;5156652;27;20050;-81
2023/10/10 07:38:29;;;;;;;68.70;51.92;;;;;;;;;;5155727;27;20045;-80
2023/10/10 07:40:56;;;;;;;69.75;51.80;;;;;;;;;;5155172;27;20050;-81
2023/10/10 07:43:27;;;;;;;70.50;53.67;;;;;;;;;;5156319;27;20053;-81
2023/10/10 07:45:56;;;;;;;67.13;52.05;;;;;;;;;;5137765;27;20078;-81
2023/10/10 07:51:07;;;;;;;74.85;52.00;;;;;;;;;;5155254;27;20073;-81
2023/10/10 07:53:41;;;;;;;76.43;54.58;;;;;;;;;;5139892;27;20047;-81
2023/10/10 07:56:07;;;;;;;78.45;55.65;;;;;;;;;;5156647;27;20046;-80
2023/10/10 08:01:31;;;;;;;74.20;54.95;;;;;;;;;;5108110;27;20046;-81
2023/10/10 08:03:58;;;;;;;85.78;60.03;;;;;;;;;;5155876;27;20053;-81
2023/10/10 08:06:33;;;;;;;84.82;60.17;;;;;;;;;;5138746;27;20050;-81
2023/10/10 08:11:43;;;;;;;87.90;59.90;;;;;;;;;;5154890;27;20050;-81
2023/10/10 08:14:09;;;;;;;88.55;61.75;;;;;;;;;;5155809;27;20046;-81
2023/10/10 08:16:36;;;;;;;87.38;61.97;;;;;;;;;;5120895;27;20050;-81
2023/10/10 08:19:06;;;;;;;86.40;61.58;;;;;;;;;;5154387;27;20043;-81
2023/10/10 08:21:38;;;;;;;84.00;60.78;;;;;;;;;;5137567;27;20083;-81
2023/10/10 08:24:05;;;;;;;83.43;60.95;;;;;;;;;;5154914;27;20095;-81
2023/10/10 08:26:38;;;;;;;83.57;60.95;;;;;;;;;;5155086;27;20050;-81
2023/10/10 08:29:06;;;;;;;88.95;62.35;;;;;;;;;;5137395;27;20470;-80
2023/10/10 08:31:33;;;;;;;87.50;64.25;;;;;;;;;;5154366;27;20082;-81
2023/10/10 08:33:59;;;;;;;80.75;58.95;;;;;;;;;;5154479;27;20611;-81
2023/10/10 08:36:25;;;;;;;83.47;60.40;;;;;;;;;;5155183;27;20042;-81
2023/10/10 08:38:54;;;;;;;85.60;62.22;;;;;;;;;;5136767;27;20051;-81
2023/10/10 08:41:27;;;;;;;82.85;60.83;;;;;;;;;;5136020;27;20054;-81
2023/10/10 08:44:05;;;;;;;82.65;63.17;;;;;;;;;;5137178;27;20126;-81
2023/10/10 08:46:40;;;;;;;78.85;61.35;;;;;;;;;;5138695;27;20046;-81
2023/10/10 08:49:07;;;;;;;82.75;62.25;;;;;;;;;;5100720;28;20433;-81
2023/10/10 08:51:34;;;;;;;81.10;64.13;;;;;;;;;;5133003;28;20043;-79
2023/10/10 08:54:10;;;;;;;84.35;63.60;;;;;;;;;;5133537;28;20043;-80
2023/10/10 08:56:59;;;;;;;79.97;62.63;;;;;;;;;;5136447;27;20129;-80
2023/10/10 08:59:25;;;;;;;76.53;60.83;;;;;;;;;;5119578;27;20051;-79
2023/10/10 09:01:51;;;;;;;82.43;61.33;;;;;;;;;;5138223;27;20078;-81
2023/10/10 09:04:19;;;;;;;73.53;60.70;;;;;;;;;;5137558;27;20139;-80
2023/10/10 09:06:58;;;;;;;68.10;58.50;;;;;;;;;;5138124;27;20490;-80
2023/10/10 09:12:20;;;;;;;65.30;56.67;;;;;;;;;;5124214;27;20051;-79
2023/10/10 09:14:52;;;;;;;63.17;53.47;;;;;;;;;;5120804;27;20047;-79
2023/10/10 09:17:28;;;;;;;65.40;55.33;;;;;;;;;;5138636;27;20053;-80
2023/10/10 09:19:57;;;;;;;61.85;54.00;;;;;;;;;;5138874;27;20088;-80
2023/10/10 09:22:42;;;;;;;60.83;51.92;;;;;;;;;;5119833;27;20039;-80
2023/10/10 09:25:18;;;;;;;;;;;;;;;;;;5137930;27;20092;-80
2023/10/10 09:28:00;;;;;;;59.35;50.45;;;;;;;;;;5137339;27;19926;-80
2023/10/10 09:30:34;;;;;;;55.33;49.35;;;;;;;;;;5138051;27;20039;-80
2023/10/10 09:33:13;;;;;;;56.00;50.05;;;;;;;;;;5137061;27;20491;-80
2023/10/10 09:35:48;;;;;;;59.53;51.30;;;;;;;;;;5138076;27;20047;-81
2023/10/10 09:38:19;;;;;;;55.17;49.22;;;;;;;;;;5104545;27;20047;-80
2023/10/10 09:40:58;;;;;;;56.22;50.10;;;;;;;;;;5136593;27;20059;-80
2023/10/10 09:43:35;;;;;;;53.58;47.78;;;;;;;;;;5121591;27;20440;-80
2023/10/10 09:46:18;;;;;;;52.15;46.53;;;;;;;;;;5136882;27;20043;-80
2023/10/10 09:54:18;;;;;;;54.05;48.33;;;;;;;;;;5139436;27;20039;-81
2023/10/10 09:56:50;;;;;;;54.65;48.72;;;;;;;;;;5152843;27;20057;-81
2023/10/10 09:59:20;;;;;;;53.70;46.90;;;;;;;;;;5155417;27;20043;-81
2023/10/10 10:01:48;;;;;;;52.40;46.75;;;;;;;;;;5150931;27;20402;-80
2023/10/10 10:04:24;;;;;;;54.40;46.28;;;;;;;;;;5139962;27;20050;-79
2023/10/10 10:07:18;;;;;;;53.25;46.17;;;;;;;;;;5155160;27;20115;-80
2023/10/10 10:09:51;;;;;;;52.42;46.78;;;;;;;;;;5158098;27;20351;-79
2023/10/10 10:12:33;;;;;;;52.97;47.20;;;;;;;;;;5156944;27;20406;-80
2023/10/10 10:15:07;;;;;;;52.55;46.80;;;;;;;;;;5158257;27;20173;-79
2023/10/10 10:17:48;;;;;;;54.72;45.85;;;;;;;;;;5156781;27;20038;-80
2023/10/10 10:20:25;;;;;;;51.33;45.70;;;;;;;;;;5135703;27;20092;-80
2023/10/10 10:22:54;;;;;;;52.58;45.25;;;;;;;;;;5135947;27;20078;-79
2023/10/10 10:25:25;;;;;;;51.85;45.30;;;;;;;;;;5136337;27;20046;-79
2023/10/10 10:28:00;;;;;;;52.63;46.60;;;;;;;;;;5135823;27;20126;-80
2023/10/10 10:32:59;;;;;;;49.15;43.95;;;;;;;;;;5135993;27;20130;-80
2023/10/10 10:35:46;;;;;;;49.20;43.92;;;;;;;;;;5136410;27;20092;-79
2023/10/10 10:38:12;;;;;;;48.25;42.17;;;;;;;;;;5121207;27;20495;-80
2023/10/10 10:43:14;;;;;;;49.67;44.38;;;;;;;;;;5146843;27;20432;-80
2023/10/10 10:46:07;;;;;;;50.20;44.72;;;;;;;;;;5140483;27;20048;-80
2023/10/10 10:48:34;;;;;;;;;;;;;;;;;;5157172;27;20082;-80
2023/10/10 10:51:23;;;;;;;49.65;41.47;;;;;;;;;;5155977;27;19933;-79
2023/10/10 10:54:07;;;;;;;48.75;42.13;;;;;;;;;;5156256;27;20406;-80
2023/10/10 10:59:13;;;;;;;46.55;41.42;;;;;;;;;;5156249;27;20482;-79
2023/10/10 11:01:45;;;;;;;46.60;41.70;;;;;;;;;;5157155;27;20058;-79
2023/10/10 11:04:17;;;;;;;47.13;42.03;;;;;;;;;;5156144;27;20521;-80
2023/10/10 11:06:50;;;;;;;46.78;41.80;;;;;;;;;;5156169;27;20058;-80
2023/10/10 11:09:30;;;;;;;44.58;39.83;;;;;;;;;;5156127;27;20123;-80
2023/10/10 11:12:03;;;;;;;45.47;40.53;;;;;;;;;;5155944;27;20087;-80
2023/10/10 11:14:33;;;;;;;44.55;39.88;;;;;;;;;;5155972;27;20047;-80
2023/10/10 11:16:59;;;;;;;43.63;39.03;;;;;;;;;;5155645;27;20176;-80
2023/10/10 11:21:56;;;;;;;44.58;39.78;;;;;;;;;;5155404;27;20555;-80
2023/10/10 11:24:29;;;;;;;45.75;40.78;;;;;;;;;;5155670;27;20087;-80
2023/10/10 11:27:13;;;;;;;44.17;39.50;;;;;;;;;;5138084;27;20046;-80
2023/10/10 11:29:50;;;;;;;42.28;37.67;;;;;;;;;;5156176;27;20058;-81
2023/10/10 11:32:29;;;;;;;40.25;36.05;;;;;;;;;;5156770;27;20038;-81
2023/10/10 11:34:56;;;;;;;40.33;36.10;;;;;;;;;;5155085;27;20058;-80
2023/10/10 11:37:31;;;;;;;39.25;35.25;;;;;;;;;;5155525;27;20133;-80
2023/10/10 11:40:30;;;;;;;38.90;34.80;;;;;;;;;;5155325;27;20058;-80
2023/10/10 11:42:57;;;;;;;36.75;30.85;;;;;;;;;;5155766;27;20066;-79
2023/10/10 11:45:27;;;;;;;31.75;28.55;;;;;;;;;;5155055;27;20042;-79
2023/10/10 11:48:00;;;;;;;35.42;28.50;;;;;;;;;;5137946;27;20042;-79
2023/10/10 11:50:43;;;;;;;33.92;28.52;;;;;;;;;;5154619;27;20042;-79
2023/10/10 11:53:12;;;;;;;30.92;27.00;;;;;;;;;;5155257;27;20054;-79
2023/10/10 11:55:41;;;;;;;31.17;25.50;;;;;;;;;;5155187;27;20058;-80
2023/10/10 11:58:08;;;;;;;29.90;25.77;;;;;;;;;;5155087;27;20035;-79
2023/10/10 12:00:44;;;;;;;27.92;24.83;;;;;;;;;;5155657;27;20043;-80
2023/10/10 12:03:41;;;;;;;29.02;25.10;;;;;;;;;;5154785;27;20053;-80
2023/10/10 12:06:00;;;;;;;26.70;23.83;;;;;;;;;;5154498;27;20510;-80
2023/10/10 12:08:27;;;;;;;28.30;24.15;;;;;;;;;;5155927;27;20043;-79
2023/10/10 12:11:02;;;;;;;25.95;21.58;;;;;;;;;;5154579;27;20043;-79
2023/10/10 12:16:07;;;;;;;25.35;22.70;;;;;;;;;;5155256;27;20054;-79
2023/10/10 12:18:33;;;;;;;27.83;22.75;;;;;;;;;;5155085;27;20046;-79
2023/10/10 12:21:03;;;;;;;27.52;22.13;;;;;;;;;;5153688;27;20039;-79
2023/10/10 12:23:31;;;;;;;27.50;21.42;;;;;;;;;;5154376;27;20566;-80
2023/10/10 12:25:59;;;;;;;25.80;21.27;;;;;;;;;;5154456;27;20054;-80
2023/10/10 12:28:25;;;;;;;26.60;20.88;;;;;;;;;;5154452;27;20082;-79
2023/10/10 12:30:52;;;;;;;25.83;21.23;;;;;;;;;;5120234;27;20047;-79
2023/10/10 12:33:19;;;;;;;21.98;19.73;;;;;;;;;;5154558;27;20510;-79
2023/10/10 12:35:49;;;;;;;23.58;19.45;;;;;;;;;;5154543;27;20427;-79
2023/10/10 12:38:20;;;;;;;22.17;19.02;;;;;;;;;;5154379;27;20043;-80
2023/10/10 12:40:56;;;;;;;25.23;20.42;;;;;;;;;;5153714;27;20099;-79
2023/10/10 12:43:26;;;;;;;22.25;19.90;;;;;;;;;;5137376;27;20054;-79
2023/10/10 12:45:54;;;;;;;25.67;19.35;;;;;;;;;;5154475;27;20042;-79
2023/10/10 12:48:20;;;;;;;23.83;18.98;;;;;;;;;;5154173;27;20043;-79
2023/10/10 12:50:47;;;;;;;26.55;21.35;;;;;;;;;;5154207;27;20486;-79
2023/10/10 12:53:20;;;;;;;23.25;20.70;;;;;;;;;;5155330;27;20453;-79
2023/10/10 12:55:51;;;;;;;24.55;20.27;;;;;;;;;;5154548;27;20479;-79
2023/10/10 12:58:22;;;;;;;23.73;20.67;;;;;;;;;;5154372;27;20367;-79
2023/10/10 13:00:51;;;;;;;23.30;20.42;;;;;;;;;;5137272;27;20103;-80
2023/10/10 13:03:27;;;;;;;24.33;19.95;;;;;;;;;;5154123;27;20086;-79
2023/10/10 13:06:00;;;;;;;22.50;19.95;;;;;;;;;;5154305;27;20093;-80
2023/10/10 13:08:47;;;;;;;23.23;19.30;;;;;;;;;;5154374;27;20103;-79
2023/10/10 13:11:17;;;;;;;26.23;19.52;;;;;;;;;;5136627;27;20079;-79
2023/10/10 13:13:56;;;;;;;25.80;20.70;;;;;;;;;;5136620;27;20082;-80
2023/10/10 13:16:26;;;;;;;23.83;20.35;;;;;;;;;;5154154;27;20047;-80
2023/10/10 13:18:52;;;;;;;23.35;19.77;;;;;;;;;;5154246;27;20050;-79
2023/10/10 13:21:22;;;;;;;23.90;20.15;;;;;;;;;;5153372;27;20134;-80
2023/10/10 13:23:52;;;;;;;22.05;18.88;;;;;;;;;;5154058;27;20154;-79
2023/10/10 13:26:18;;;;;;;24.42;19.20;;;;;;;;;;5154174;27;20076;-79
2023/10/10 13:28:45;;;;;;;30.77;21.83;;;;;;;;;;5155094;27;20050;-79
2023/10/10 13:31:12;;;;;;;29.63;23.25;;;;;;;;;;5154106;27;20394;-79
2023/10/10 13:33:39;;;;;;;23.23;18.50;;;;;;;;;;5135544;27;20038;-80
2023/10/10 13:36:05;;;;;;;19.92;17.63;;;;;;;;;;5126023;28;20050;-80
2023/10/10 13:38:32;;;;;;;22.17;19.75;;;;;;;;;;5133559;27;20047;-80
2023/10/10 13:41:02;;;;;;;20.70;17.65;;;;;;;;;;5136439;27;20058;-80
2023/10/10 13:43:28;;;;;;;24.05;16.35;;;;;;;;;;5121971;27;20039;-79
2023/10/10 13:45:57;;;;;;;21.38;18.20;;;;;;;;;;5158692;27;20043;-80
2023/10/10 13:48:24;;;;;;;18.58;16.45;;;;;;;;;;5140502;27;20039;-80
2023/10/10 13:50:51;;;;;;;17.85;15.73;;;;;;;;;;5139625;27;20101;-80
2023/10/10 13:53:20;;;;;;;17.48;15.70;;;;;;;;;;5123403;27;20047;-80
2023/10/10 13:55:46;;;;;;;18.40;15.85;;;;;;;;;;5140001;27;20043;-80
2023/10/10 13:58:13;;;;;;;19.25;16.15;;;;;;;;;;5158385;27;20479;-79
2023/10/10 14:00:43;;;;;;;21.50;17.10;;;;;;;;;;5139738;27;20039;-80
2023/10/10 14:03:14;;;;;;;20.48;16.42;;;;;;;;;;5140155;27;20081;-80
2023/10/10 14:05:49;;;;;;;18.50;15.95;;;;;;;;;;5158639;27;20058;-80
2023/10/10 14:08:17;;;;;;;20.83;15.73;;;;;;;;;;5140024;27;20053;-80
2023/10/10 14:10:43;;;;;;;19.70;16.05;;;;;;;;;;5139836;27;20061;-80
2023/10/10 14:13:18;;;;;;;20.33;15.75;;;;;;;;;;5139742;27;20050;-79
2023/10/10 14:15:54;;;;;;;20.05;16.50;;;;;;;;;;5140156;27;20047;-79
2023/10/10 14:18:46;;;;;;;19.40;15.32;;;;;;;;;;5140649;27;20119;-79
2023/10/10 14:21:12;;;;;;;17.40;14.80;;;;;;;;;;5122081;27;20073;-79
2023/10/10 14:23:39;;;;;;;19.30;15.85;;;;;;;;;;5139571;27;20057;-79
2023/10/10 14:26:18;;;;;;;19.70;15.48;;;;;;;;;;5140146;27;20039;-79
2023/10/10 14:28:51;;;;;;;16.90;14.18;;;;;;;;;;5139495;27;20519;-80
2023/10/10 14:31:21;;;;;;;17.27;15.13;;;;;;;;;;5139806;27;20047;-79
2023/10/10 14:33:48;;;;;;;23.17;15.23;;;;;;;;;;5139437;27;20042;-80
2023/10/10 14:36:14;;;;;;;19.45;14.52;;;;;;;;;;5157723;27;20050;-79
2023/10/10 14:38:44;;;;;;;21.77;14.60;;;;;;;;;;5139202;27;20057;-80
2023/10/10 14:41:19;;;;;;;17.52;15.32;;;;;;;;;;5157572;27;20086;-80
2023/10/10 14:43:49;;;;;;;16.63;14.07;;;;;;;;;;5139242;27;20042;-79
2023/10/10 14:46:21;;;;;;;18.33;14.48;;;;;;;;;;5157678;27;20042;-79
2023/10/10 14:48:48;;;;;;;18.40;14.52;;;;;;;;;;5149233;27;20046;-80
2023/10/10 14:51:17;;;;;;;19.83;15.65;;;;;;;;;;5159141;27;20042;-80
2023/10/10 14:53:51;;;;;;;16.95;14.95;;;;;;;;;;5142796;27;20042;-79
2023/10/10 14:56:22;;;;;;;16.08;14.48;;;;;;;;;;5142849;27;20050;-79
2023/10/10 14:58:48;;;;;;;17.65;15.10;;;;;;;;;;5160264;27;20046;-79
2023/10/10 15:01:18;;;;;;;19.05;14.82;;;;;;;;;;5159737;27;20473;-79
2023/10/10 15:03:44;;;;;;;18.00;15.10;;;;;;;;;;5143665;27;20049;-79
2023/10/10 15:06:10;;;;;;;17.80;14.75;;;;;;;;;;5142695;27;20046;-79
2023/10/10 15:08:43;;;;;;;20.35;16.85;;;;;;;;;;5158313;27;20044;-82
2023/10/10 15:11:11;;;;;;;19.92;15.50;;;;;;;;;;5177719;27;20046;-80
2023/10/10 15:13:41;;;;;;;17.50;15.18;;;;;;;;;;5158414;27;20053;-83
2023/10/10 15:16:10;;;;;;;17.00;15.20;;;;;;;;;;5155118;27;20533;-80
2023/10/10 15:18:41;;;;;;;20.00;16.05;;;;;;;;;;5158076;27;20049;-80
2023/10/10 15:21:07;;;;;;;20.25;16.35;;;;;;;;;;5141321;27;20038;-79
2023/10/10 15:23:33;;;;;;;21.08;15.57;;;;;;;;;;5155476;27;20478;-79
2023/10/10 15:26:11;;;;;;;19.92;16.15;;;;;;;;;;5157866;27;20409;-79
2023/10/10 15:28:40;;;;;;;19.17;15.43;;;;;;;;;;5142439;27;20042;-80
2023/10/10 15:31:07;;;;;;;19.85;17.20;;;;;;;;;;5159067;27;20045;-80
2023/10/10 15:33:33;;;;;;;18.60;16.45;;;;;;;;;;5155553;27;20082;-81
2023/10/10 15:36:00;;;;;;;19.60;17.02;;;;;;;;;;5169086;27;20050;-80
2023/10/10 15:38:29;;;;;;;22.08;18.10;;;;;;;;;;5157890;27;20042;-79
2023/10/10 15:40:55;;;;;;;20.77;17.02;;;;;;;;;;5155068;27;20129;-79
2023/10/10 15:43:21;;;;;;;20.98;17.10;;;;;;;;;;5155390;27;20103;-80
2023/10/10 15:45:48;;;;;;;22.27;17.27;;;;;;;;;;5155473;27;20046;-80
2023/10/10 15:48:24;;;;;;;19.33;16.83;;;;;;;;;;5158276;27;20042;-80
2023/10/10 15:50:53;;;;;;;19.52;16.25;;;;;;;;;;5176449;27;20042;-80
2023/10/10 15:53:20;;;;;;;22.90;17.77;;;;;;;;;;5158663;27;20126;-79
2023/10/10 15:58:58;;;;;;;24.55;16.73;;;;;;;;;;5094922;28;20047;-80
2023/10/10 16:01:28;;;;;;;21.15;16.35;;;;;;;;;;5145052;27;20049;-80
2023/10/10 16:03:59;;;;;;;18.00;16.13;;;;;;;;;;5158549;27;20411;-80
2023/10/10 16:06:26;;;;;;;22.15;16.20;;;;;;;;;;5141539;27;20082;-80
2023/10/10 16:08:53;;;;;;;19.65;16.20;;;;;;;;;;5140853;27;20045;-80
2023/10/10 16:11:20;;;;;;;19.08;17.08;;;;;;;;;;5141181;27;20411;-81
2023/10/10 16:13:46;;;;;;;22.27;16.05;;;;;;;;;;5158347;27;20202;-80
2023/10/10 16:16:13;;;;;;;19.10;16.88;;;;;;;;;;5158027;27;20122;-80
2023/10/10 16:18:40;;;;;;;21.15;17.23;;;;;;;;;;5158070;27;20046;-80
2023/10/10 16:21:08;;;;;;;20.58;16.33;;;;;;;;;;5157429;27;20469;-80
2023/10/10 16:23:36;;;;;;;20.80;16.88;;;;;;;;;;5158339;27;20042;-79
2023/10/10 16:26:04;;;;;;;19.92;17.17;;;;;;;;;;5158405;27;20042;-79
2023/10/10 16:28:36;;;;;;;18.65;16.73;;;;;;;;;;5158179;27;20046;-80
2023/10/10 16:31:12;;;;;;;23.15;16.40;;;;;;;;;;5158178;27;20367;-78
2023/10/10 16:33:38;;;;;;;19.20;16.52;;;;;;;;;;5140767;27;20041;-80
2023/10/10 16:36:09;;;;;;;22.42;16.95;;;;;;;;;;5156668;27;20125;-80
2023/10/10 16:38:36;;;;;;;20.27;17.05;;;;;;;;;;5157489;27;20077;-80
2023/10/10 16:41:03;;;;;;;20.75;17.38;;;;;;;;;;5157127;27;20078;-80
2023/10/10 16:43:29;;;;;;;25.45;17.15;;;;;;;;;;5154294;27;20949;-80
2023/10/10 16:45:55;;;;;;;19.88;16.45;;;;;;;;;;5152636;27;20061;-81
2023/10/10 16:48:21;;;;;;;19.05;16.75;;;;;;;;;;5172340;27;20060;-80
2023/10/10 16:50:47;;;;;;;21.85;16.33;;;;;;;;;;5132537;27;20043;-80
2023/10/10 16:53:13;;;;;;;19.50;16.00;;;;;;;;;;5130664;27;20038;-79
2023/10/10 16:55:41;;;;;;;18.98;15.32;;;;;;;;;;5137689;27;20417;-79
2023/10/10 16:58:14;;;;;;;20.90;16.08;;;;;;;;;;5156197;27;20067;-80
2023/10/10 17:00:40;;;;;;;22.13;16.80;;;;;;;;;;5135827;27;20065;-80
2023/10/10 17:03:06;;;;;;;19.33;15.90;;;;;;;;;;5171708;27;20042;-80
2023/10/10 17:05:36;;;;;;;19.05;15.23;;;;;;;;;;5155147;27;20043;-79
2023/10/10 17:08:03;;;;;;;21.80;16.10;;;;;;;;;;5135612;27;20401;-79
2023/10/10 17:10:32;;;;;;;20.30;14.80;;;;;;;;;;5154018;27;20065;-80
2023/10/10 17:13:00;;;;;;;17.30;15.38;;;;;;;;;;5152345;27;20053;-80
2023/10/10 17:15:26;;;;;;;16.95;15.15;;;;;;;;;;5130447;27;20109;-80
2023/10/10 17:17:52;;;;;;;21.17;14.52;;;;;;;;;;5142897;27;20114;-83
2023/10/10 17:20:19;;;;;;;19.67;15.18;;;;;;;;;;5179621;27;20034;-80
2023/10/10 17:22:46;;;;;;;18.00;15.25;;;;;;;;;;5160762;27;20440;-81
2023/10/10 17:25:12;;;;;;;20.40;15.27;;;;;;;;;;5161050;27;20121;-81
2023/10/10 17:27:43;;;;;;;18.13;15.43;;;;;;;;;;5179497;27;20061;-80
2023/10/10 17:30:10;;;;;;;22.10;15.10;;;;;;;;;;5144121;27;20046;-81
2023/10/10 17:32:39;;;;;;;20.50;14.70;;;;;;;;;;5144230;27;20136;-80
2023/10/10 17:35:07;;;;;;;17.85;14.50;;;;;;;;;;5144353;27;20094;-80